Krugersdorp, South Africa
Current Conditions -  °F | °C
As of 2:00 AM on Wednesday 26 Nov 2014 (Local Time) from FALA Reporting Station
NA  
Wind Chill: 64°   Ceiling: NA
Heat Index: 64°   Visibility: NA
Dew Point: 55°   Wind: 9mph
Humidity: 73%   Direction: 60°ENE
Pressure: 30.18"   Gusts: NA
Location:  26.09°S, 27.77°E
Report Text: FALA 260000Z AUTO 06008KT //// // 18/13 Q1022
Loading
Personal Weather Stations






























Interactive Weather Map New forecast layout! Learn more

10-Day Weather Forecast

Advertisements
Track Severe Weather on mobile